sensor_id;sensor_type;location;lat;lon;timestamp;P1;durP1;ratioP1;P2;durP2;ratioP2
50781;SDS011;36749;37.428;-121.972;2023-04-15T00:02:16;19.23;;;5.70;;
50781;SDS011;36749;37.428;-121.972;2023-04-15T00:04:47;20.27;;;5.07;;
50781;SDS011;36749;37.428;-121.972;2023-04-15T00:07:13;26.10;;;7.80;;
50781;SDS011;36749;37.428;-121.972;2023-04-15T00:09:40;23.10;;;8.77;;
50781;SDS011;36749;37.428;-121.972;2023-04-15T00:12:07;14.32;;;3.17;;
50781;SDS011;36749;37.428;-121.972;2023-04-15T00:14:34;14.30;;;2.95;;
50781;SDS011;36749;37.428;-121.972;2023-04-15T00:17:01;11.98;;;2.65;;
50781;SDS011;36749;37.428;-121.972;2023-04-15T00:19:28;16.45;;;3.58;;
50781;SDS011;36749;37.428;-121.972;2023-04-15T00:21:55;14.80;;;3.00;;
50781;SDS011;36749;37.428;-121.972;2023-04-15T00:24:22;13.25;;;3.03;;
50781;SDS011;36749;37.428;-121.972;2023-04-15T00:26:48;17.02;;;2.40;;
50781;SDS011;36749;37.428;-121.972;2023-04-15T00:29:14;12.07;;;2.75;;
50781;SDS011;36749;37.428;-121.972;2023-04-15T00:31:41;11.45;;;3.00;;
50781;SDS011;36749;37.428;-121.972;2023-04-15T00:34:07;10.90;;;3.10;;
50781;SDS011;36749;37.428;-121.972;2023-04-15T00:36:33;11.32;;;2.53;;
50781;SDS011;36749;37.428;-121.972;2023-04-15T00:39:00;9.55;;;2.30;;
50781;SDS011;36749;37.428;-121.972;2023-04-15T00:41:27;13.18;;;2.75;;
50781;SDS011;36749;37.428;-121.972;2023-04-15T00:43:54;13.25;;;3.13;;
50781;SDS011;36749;37.428;-121.972;2023-04-15T00:46:20;18.83;;;2.63;;
50781;SDS011;36749;37.428;-121.972;2023-04-15T00:48:47;14.02;;;2.90;;
50781;SDS011;36749;37.428;-121.972;2023-04-15T00:51:14;12.07;;;3.72;;
50781;SDS011;36749;37.428;-121.972;2023-04-15T00:53:41;13.63;;;2.55;;
50781;SDS011;36749;37.428;-121.972;2023-04-15T00:56:07;14.88;;;3.03;;
50781;SDS011;36749;37.428;-121.972;2023-04-15T00:58:34;6.85;;;2.40;;
50781;SDS011;36749;37.428;-121.972;2023-04-15T01:01:01;8.77;;;2.38;;
50781;SDS011;36749;37.428;-121.972;2023-04-15T01:03:28;10.73;;;2.25;;
50781;SDS011;36749;37.428;-121.972;2023-04-15T01:05:55;10.82;;;2.38;;
50781;SDS011;36749;37.428;-121.972;2023-04-15T01:08:27;14.35;;;2.78;;
50781;SDS011;36749;37.428;-121.972;2023-04-15T01:10:57;20.73;;;3.78;;
50781;SDS011;36749;37.428;-121.972;2023-04-15T01:13:27;11.80;;;2.40;;
50781;SDS011;36749;37.428;-121.972;2023-04-15T01:15:54;14.18;;;3.75;;
50781;SDS011;36749;37.428;-121.972;2023-04-15T01:18:22;11.02;;;2.75;;
50781;SDS011;36749;37.428;-121.972;2023-04-15T01:20:48;10.15;;;3.03;;
50781;SDS011;36749;37.428;-121.972;2023-04-15T01:23:14;10.52;;;2.58;;
50781;SDS011;36749;37.428;-121.972;2023-04-15T01:25:41;13.75;;;3.63;;
50781;SDS011;36749;37.428;-121.972;2023-04-15T01:28:09;11.23;;;2.85;;
50781;SDS011;36749;37.428;-121.972;2023-04-15T01:30:35;13.15;;;3.53;;
50781;SDS011;36749;37.428;-121.972;2023-04-15T01:33:02;18.52;;;3.28;;
50781;SDS011;36749;37.428;-121.972;2023-04-15T01:35:28;9.25;;;2.40;;
50781;SDS011;36749;37.428;-121.972;2023-04-15T01:37:54;14.90;;;2.42;;
50781;SDS011;36749;37.428;-121.972;2023-04-15T01:40:28;14.20;;;3.35;;
50781;SDS011;36749;37.428;-121.972;2023-04-15T01:42:55;13.82;;;3.22;;
50781;SDS011;36749;37.428;-121.972;2023-04-15T01:45:21;10.65;;;2.92;;
50781;SDS011;36749;37.428;-121.972;2023-04-15T01:47:47;15.95;;;3.08;;
50781;SDS011;36749;37.428;-121.972;2023-04-15T01:50:14;9.82;;;2.05;;
50781;SDS011;36749;37.428;-121.972;2023-04-15T01:52:40;8.18;;;2.70;;
50781;SDS011;36749;37.428;-121.972;2023-04-15T01:55:08;11.15;;;2.40;;
50781;SDS011;36749;37.428;-121.972;2023-04-15T01:57:34;9.75;;;2.28;;
50781;SDS011;36749;37.428;-121.972;2023-04-15T02:00:01;9.20;;;2.80;;
50781;SDS011;36749;37.428;-121.972;2023-04-15T02:02:27;9.23;;;2.25;;
50781;SDS011;36749;37.428;-121.972;2023-04-15T02:04:55;10.13;;;2.47;;
50781;SDS011;36749;37.428;-121.972;2023-04-15T02:07:21;9.20;;;3.00;;
50781;SDS011;36749;37.428;-121.972;2023-04-15T02:09:48;8.93;;;2.75;;
50781;SDS011;36749;37.428;-121.972;2023-04-15T02:12:14;9.40;;;3.35;;
50781;SDS011;36749;37.428;-121.972;2023-04-15T02:14:40;9.95;;;3.47;;
50781;SDS011;36749;37.428;-121.972;2023-04-15T02:17:07;11.70;;;3.30;;
50781;SDS011;36749;37.428;-121.972;2023-04-15T02:19:33;9.25;;;2.40;;
50781;SDS011;36749;37.428;-121.972;2023-04-15T02:22:00;13.57;;;3.63;;
50781;SDS011;36749;37.428;-121.972;2023-04-15T02:24:27;13.27;;;2.72;;
50781;SDS011;36749;37.428;-121.972;2023-04-15T02:26:55;9.93;;;2.03;;
50781;SDS011;36749;37.428;-121.972;2023-04-15T02:29:22;21.35;;;2.78;;
50781;SDS011;36749;37.428;-121.972;2023-04-15T02:31:48;14.68;;;2.78;;
50781;SDS011;36749;37.428;-121.972;2023-04-15T02:34:15;11.45;;;3.22;;
50781;SDS011;36749;37.428;-121.972;2023-04-15T02:36:41;25.90;;;4.53;;
50781;SDS011;36749;37.428;-121.972;2023-04-15T02:39:07;26.15;;;4.88;;
50781;SDS011;36749;37.428;-121.972;2023-04-15T02:41:34;16.80;;;4.38;;
50781;SDS011;36749;37.428;-121.972;2023-04-15T02:44:00;13.88;;;4.90;;
50781;SDS011;36749;37.428;-121.972;2023-04-15T02:46:27;13.40;;;3.33;;
50781;SDS011;36749;37.428;-121.972;2023-04-15T02:48:53;12.85;;;3.15;;
50781;SDS011;36749;37.428;-121.972;2023-04-15T02:51:20;8.63;;;3.40;;
50781;SDS011;36749;37.428;-121.972;2023-04-15T02:53:47;10.27;;;2.53;;
50781;SDS011;36749;37.428;-121.972;2023-04-15T02:56:14;9.82;;;3.72;;
50781;SDS011;36749;37.428;-121.972;2023-04-15T02:58:42;11.75;;;3.30;;
50781;SDS011;36749;37.428;-121.972;2023-04-15T03:01:09;16.80;;;3.25;;
50781;SDS011;36749;37.428;-121.972;2023-04-15T03:03:36;11.82;;;3.38;;
50781;SDS011;36749;37.428;-121.972;2023-04-15T03:06:02;16.63;;;4.47;;
50781;SDS011;36749;37.428;-121.972;2023-04-15T03:08:28;14.05;;;4.18;;
50781;SDS011;36749;37.428;-121.972;2023-04-15T03:10:56;11.98;;;2.75;;
50781;SDS011;36749;37.428;-121.972;2023-04-15T03:13:27;12.45;;;3.92;;
50781;SDS011;36749;37.428;-121.972;2023-04-15T03:15:53;13.52;;;3.03;;
50781;SDS011;36749;37.428;-121.972;2023-04-15T03:18:19;10.23;;;2.88;;
50781;SDS011;36749;37.428;-121.972;2023-04-15T03:20:45;13.02;;;2.60;;
50781;SDS011;36749;37.428;-121.972;2023-04-15T03:23:12;13.68;;;3.00;;
50781;SDS011;36749;37.428;-121.972;2023-04-15T03:25:38;9.90;;;2.80;;
50781;SDS011;36749;37.428;-121.972;2023-04-15T03:28:04;12.00;;;2.55;;
50781;SDS011;36749;37.428;-121.972;2023-04-15T03:30:30;12.23;;;2.70;;
50781;SDS011;36749;37.428;-121.972;2023-04-15T03:32:57;14.18;;;3.40;;
50781;SDS011;36749;37.428;-121.972;2023-04-15T03:35:23;11.07;;;2.55;;
50781;SDS011;36749;37.428;-121.972;2023-04-15T03:37:49;12.23;;;2.40;;
50781;SDS011;36749;37.428;-121.972;2023-04-15T03:40:16;8.02;;;1.75;;
50781;SDS011;36749;37.428;-121.972;2023-04-15T03:42:42;10.10;;;2.95;;
50781;SDS011;36749;37.428;-121.972;2023-04-15T03:45:08;7.93;;;2.50;;
50781;SDS011;36749;37.428;-121.972;2023-04-15T03:47:35;10.95;;;3.03;;
50781;SDS011;36749;37.428;-121.972;2023-04-15T03:50:01;9.15;;;2.55;;
50781;SDS011;36749;37.428;-121.972;2023-04-15T03:52:27;13.55;;;2.60;;
50781;SDS011;36749;37.428;-121.972;2023-04-15T03:54:54;6.28;;;2.65;;
50781;SDS011;36749;37.428;-121.972;2023-04-15T03:57:20;9.02;;;2.25;;
50781;SDS011;36749;37.428;-121.972;2023-04-15T03:59:46;11.40;;;2.75;;
50781;SDS011;36749;37.428;-121.972;2023-04-15T04:02:12;7.22;;;2.03;;
50781;SDS011;36749;37.428;-121.972;2023-04-15T04:04:38;6.53;;;2.13;;
50781;SDS011;36749;37.428;-121.972;2023-04-15T04:07:05;12.10;;;2.75;;
50781;SDS011;36749;37.428;-121.972;2023-04-15T04:09:31;13.50;;;2.28;;
50781;SDS011;36749;37.428;-121.972;2023-04-15T04:11:57;8.57;;;2.20;;
50781;SDS011;36749;37.428;-121.972;2023-04-15T04:14:23;11.48;;;2.88;;
50781;SDS011;36749;37.428;-121.972;2023-04-15T04:16:54;12.02;;;2.88;;
50781;SDS011;36749;37.428;-121.972;2023-04-15T04:19:21;6.90;;;2.28;;
50781;SDS011;36749;37.428;-121.972;2023-04-15T04:21:47;11.73;;;2.38;;
50781;SDS011;36749;37.428;-121.972;2023-04-15T04:24:14;10.15;;;2.08;;
50781;SDS011;36749;37.428;-121.972;2023-04-15T04:26:40;7.75;;;2.00;;
50781;SDS011;36749;37.428;-121.972;2023-04-15T04:29:06;9.07;;;2.00;;
50781;SDS011;36749;37.428;-121.972;2023-04-15T04:31:33;7.63;;;2.05;;
50781;SDS011;36749;37.428;-121.972;2023-04-15T04:33:59;7.10;;;2.47;;
50781;SDS011;36749;37.428;-121.972;2023-04-15T04:36:45;12.45;;;2.40;;
50781;SDS011;36749;37.428;-121.972;2023-04-15T04:39:11;10.85;;;1.85;;
50781;SDS011;36749;37.428;-121.972;2023-04-15T04:41:38;7.00;;;2.13;;
50781;SDS011;36749;37.428;-121.972;2023-04-15T04:44:04;13.57;;;3.15;;
50781;SDS011;36749;37.428;-121.972;2023-04-15T04:46:31;12.77;;;2.67;;
50781;SDS011;36749;37.428;-121.972;2023-04-15T04:48:57;8.82;;;2.33;;
50781;SDS011;36749;37.428;-121.972;2023-04-15T04:51:23;12.10;;;2.38;;
50781;SDS011;36749;37.428;-121.972;2023-04-15T04:53:50;4.70;;;1.70;;
50781;SDS011;36749;37.428;-121.972;2023-04-15T04:56:16;9.07;;;2.10;;
50781;SDS011;36749;37.428;-121.972;2023-04-15T04:58:43;11.02;;;2.90;;
50781;SDS011;36749;37.428;-121.972;2023-04-15T05:01:09;14.90;;;4.50;;
50781;SDS011;36749;37.428;-121.972;2023-04-15T05:03:35;12.13;;;4.70;;
50781;SDS011;36749;37.428;-121.972;2023-04-15T05:06:02;9.75;;;5.22;;
50781;SDS011;36749;37.428;-121.972;2023-04-15T05:08:31;13.73;;;4.57;;
50781;SDS011;36749;37.428;-121.972;2023-04-15T05:10:58;8.25;;;3.55;;
50781;SDS011;36749;37.428;-121.972;2023-04-15T05:13:24;7.60;;;2.40;;
50781;SDS011;36749;37.428;-121.972;2023-04-15T05:15:50;14.60;;;2.17;;
50781;SDS011;36749;37.428;-121.972;2023-04-15T05:18:16;7.80;;;1.98;;
50781;SDS011;36749;37.428;-121.972;2023-04-15T05:20:43;12.13;;;2.33;;
50781;SDS011;36749;37.428;-121.972;2023-04-15T05:23:09;10.10;;;2.25;;
50781;SDS011;36749;37.428;-121.972;2023-04-15T05:25:35;7.90;;;1.90;;
50781;SDS011;36749;37.428;-121.972;2023-04-15T05:28:01;8.10;;;2.35;;
50781;SDS011;36749;37.428;-121.972;2023-04-15T05:30:28;13.23;;;2.63;;
50781;SDS011;36749;37.428;-121.972;2023-04-15T05:33:14;9.30;;;2.22;;
50781;SDS011;36749;37.428;-121.972;2023-04-15T05:35:40;9.77;;;2.53;;
50781;SDS011;36749;37.428;-121.972;2023-04-15T05:38:06;8.70;;;2.08;;
50781;SDS011;36749;37.428;-121.972;2023-04-15T05:40:33;12.30;;;2.78;;
50781;SDS011;36749;37.428;-121.972;2023-04-15T05:42:59;13.05;;;1.98;;
50781;SDS011;36749;37.428;-121.972;2023-04-15T05:45:25;8.57;;;1.88;;
50781;SDS011;36749;37.428;-121.972;2023-04-15T05:47:52;8.40;;;2.05;;
50781;SDS011;36749;37.428;-121.972;2023-04-15T05:50:19;13.50;;;3.72;;
50781;SDS011;36749;37.428;-121.972;2023-04-15T05:52:45;14.23;;;2.50;;
50781;SDS011;36749;37.428;-121.972;2023-04-15T05:55:11;6.82;;;1.98;;
50781;SDS011;36749;37.428;-121.972;2023-04-15T05:57:38;9.00;;;2.15;;
50781;SDS011;36749;37.428;-121.972;2023-04-15T06:00:05;13.88;;;3.10;;
50781;SDS011;36749;37.428;-121.972;2023-04-15T06:02:31;11.15;;;2.40;;
50781;SDS011;36749;37.428;-121.972;2023-04-15T06:04:58;10.85;;;2.63;;
50781;SDS011;36749;37.428;-121.972;2023-04-15T06:07:25;5.82;;;2.42;;
50781;SDS011;36749;37.428;-121.972;2023-04-15T06:09:51;10.00;;;2.45;;
50781;SDS011;36749;37.428;-121.972;2023-04-15T06:12:17;8.27;;;2.53;;
50781;SDS011;36749;37.428;-121.972;2023-04-15T06:14:43;14.10;;;2.60;;
50781;SDS011;36749;37.428;-121.972;2023-04-15T06:17:10;6.90;;;1.92;;
50781;SDS011;36749;37.428;-121.972;2023-04-15T06:19:39;9.73;;;2.20;;
50781;SDS011;36749;37.428;-121.972;2023-04-15T06:22:05;7.22;;;2.00;;
50781;SDS011;36749;37.428;-121.972;2023-04-15T06:24:31;5.70;;;2.00;;
50781;SDS011;36749;37.428;-121.972;2023-04-15T06:26:58;4.05;;;1.83;;
50781;SDS011;36749;37.428;-121.972;2023-04-15T06:29:24;10.85;;;3.05;;
50781;SDS011;36749;37.428;-121.972;2023-04-15T06:31:50;11.80;;;3.17;;
50781;SDS011;36749;37.428;-121.972;2023-04-15T06:34:16;12.50;;;2.55;;
50781;SDS011;36749;37.428;-121.972;2023-04-15T06:36:42;7.03;;;2.20;;
50781;SDS011;36749;37.428;-121.972;2023-04-15T06:39:09;13.50;;;2.42;;
50781;SDS011;36749;37.428;-121.972;2023-04-15T06:41:35;8.88;;;2.30;;
50781;SDS011;36749;37.428;-121.972;2023-04-15T06:44:01;10.63;;;2.00;;
50781;SDS011;36749;37.428;-121.972;2023-04-15T06:46:28;11.20;;;2.55;;
50781;SDS011;36749;37.428;-121.972;2023-04-15T06:48:54;7.47;;;2.85;;
50781;SDS011;36749;37.428;-121.972;2023-04-15T06:51:20;11.77;;;2.42;;
50781;SDS011;36749;37.428;-121.972;2023-04-15T06:53:48;12.98;;;2.47;;
50781;SDS011;36749;37.428;-121.972;2023-04-15T06:56:14;11.90;;;2.53;;
50781;SDS011;36749;37.428;-121.972;2023-04-15T06:58:41;11.20;;;1.95;;
50781;SDS011;36749;37.428;-121.972;2023-04-15T07:01:07;10.27;;;3.08;;
50781;SDS011;36749;37.428;-121.972;2023-04-15T07:03:33;6.50;;;1.90;;
50781;SDS011;36749;37.428;-121.972;2023-04-15T07:06:00;8.57;;;2.58;;
50781;SDS011;36749;37.428;-121.972;2023-04-15T07:08:30;9.32;;;2.65;;
50781;SDS011;36749;37.428;-121.972;2023-04-15T07:10:58;9.68;;;2.20;;
50781;SDS011;36749;37.428;-121.972;2023-04-15T07:13:25;12.13;;;2.22;;
50781;SDS011;36749;37.428;-121.972;2023-04-15T07:15:51;8.10;;;2.38;;
50781;SDS011;36749;37.428;-121.972;2023-04-15T07:18:18;8.32;;;1.90;;
50781;SDS011;36749;37.428;-121.972;2023-04-15T07:20:44;10.63;;;2.60;;
50781;SDS011;36749;37.428;-121.972;2023-04-15T07:23:10;11.85;;;1.73;;
50781;SDS011;36749;37.428;-121.972;2023-04-15T07:25:36;9.55;;;2.40;;
50781;SDS011;36749;37.428;-121.972;2023-04-15T07:28:03;6.13;;;2.10;;
50781;SDS011;36749;37.428;-121.972;2023-04-15T07:30:29;8.48;;;2.00;;
50781;SDS011;36749;37.428;-121.972;2023-04-15T07:32:56;15.60;;;2.88;;
50781;SDS011;36749;37.428;-121.972;2023-04-15T07:35:23;12.38;;;2.85;;
50781;SDS011;36749;37.428;-121.972;2023-04-15T07:37:50;10.73;;;4.78;;
50781;SDS011;36749;37.428;-121.972;2023-04-15T07:40:17;15.10;;;5.90;;
50781;SDS011;36749;37.428;-121.972;2023-04-15T07:42:43;6.85;;;2.55;;
50781;SDS011;36749;37.428;-121.972;2023-04-15T07:45:10;14.38;;;5.53;;
50781;SDS011;36749;37.428;-121.972;2023-04-15T07:47:37;13.82;;;2.90;;
50781;SDS011;36749;37.428;-121.972;2023-04-15T07:50:03;10.23;;;3.10;;
50781;SDS011;36749;37.428;-121.972;2023-04-15T07:52:31;14.27;;;3.60;;
50781;SDS011;36749;37.428;-121.972;2023-04-15T07:55:06;12.32;;;3.20;;
50781;SDS011;36749;37.428;-121.972;2023-04-15T07:57:36;7.68;;;3.47;;
50781;SDS011;36749;37.428;-121.972;2023-04-15T08:00:03;8.82;;;3.47;;
50781;SDS011;36749;37.428;-121.972;2023-04-15T08:02:32;10.90;;;2.90;;
50781;SDS011;36749;37.428;-121.972;2023-04-15T08:04:58;9.75;;;1.80;;
50781;SDS011;36749;37.428;-121.972;2023-04-15T08:07:27;6.35;;;1.48;;
50781;SDS011;36749;37.428;-121.972;2023-04-15T08:09:53;6.43;;;1.60;;
50781;SDS011;36749;37.428;-121.972;2023-04-15T08:12:19;8.80;;;2.45;;
50781;SDS011;36749;37.428;-121.972;2023-04-15T08:14:46;8.50;;;1.80;;
50781;SDS011;36749;37.428;-121.972;2023-04-15T08:17:12;8.23;;;2.17;;
50781;SDS011;36749;37.428;-121.972;2023-04-15T08:19:38;17.02;;;2.63;;
50781;SDS011;36749;37.428;-121.972;2023-04-15T08:22:05;7.68;;;2.00;;
50781;SDS011;36749;37.428;-121.972;2023-04-15T08:24:31;9.65;;;3.42;;
50781;SDS011;36749;37.428;-121.972;2023-04-15T08:26:58;6.53;;;1.80;;
50781;SDS011;36749;37.428;-121.972;2023-04-15T08:29:24;12.20;;;2.10;;
50781;SDS011;36749;37.428;-121.972;2023-04-15T08:31:51;6.90;;;2.10;;
50781;SDS011;36749;37.428;-121.972;2023-04-15T08:34:18;9.93;;;1.98;;
50781;SDS011;36749;37.428;-121.972;2023-04-15T08:36:44;9.38;;;2.00;;
50781;SDS011;36749;37.428;-121.972;2023-04-15T08:39:11;18.73;;;2.92;;
50781;SDS011;36749;37.428;-121.972;2023-04-15T08:44:15;8.65;;;2.00;;
50781;SDS011;36749;37.428;-121.972;2023-04-15T08:46:43;7.95;;;1.90;;
50781;SDS011;36749;37.428;-121.972;2023-04-15T08:49:10;7.95;;;1.65;;
50781;SDS011;36749;37.428;-121.972;2023-04-15T08:51:39;7.30;;;2.00;;
50781;SDS011;36749;37.428;-121.972;2023-04-15T08:54:06;6.70;;;1.92;;
50781;SDS011;36749;37.428;-121.972;2023-04-15T08:56:33;8.82;;;2.55;;
50781;SDS011;36749;37.428;-121.972;2023-04-15T08:59:01;8.38;;;2.13;;
50781;SDS011;36749;37.428;-121.972;2023-04-15T09:01:28;14.15;;;2.33;;
50781;SDS011;36749;37.428;-121.972;2023-04-15T09:03:55;3.92;;;1.55;;
50781;SDS011;36749;37.428;-121.972;2023-04-15T09:06:21;5.90;;;1.80;;
50781;SDS011;36749;37.428;-121.972;2023-04-15T09:08:48;15.57;;;3.08;;
50781;SDS011;36749;37.428;-121.972;2023-04-15T09:11:16;11.27;;;2.17;;
50781;SDS011;36749;37.428;-121.972;2023-04-15T09:13:42;10.25;;;2.72;;
50781;SDS011;36749;37.428;-121.972;2023-04-15T09:16:09;8.23;;;2.92;;
50781;SDS011;36749;37.428;-121.972;2023-04-15T09:18:35;5.70;;;2.10;;
50781;SDS011;36749;37.428;-121.972;2023-04-15T09:21:07;12.52;;;2.45;;
50781;SDS011;36749;37.428;-121.972;2023-04-15T09:23:39;7.32;;;1.80;;
50781;SDS011;36749;37.428;-121.972;2023-04-15T09:26:07;8.43;;;2.67;;
50781;SDS011;36749;37.428;-121.972;2023-04-15T09:28:40;6.72;;;1.98;;
50781;SDS011;36749;37.428;-121.972;2023-04-15T09:31:07;11.63;;;2.28;;
50781;SDS011;36749;37.428;-121.972;2023-04-15T09:33:34;7.25;;;2.65;;
50781;SDS011;36749;37.428;-121.972;2023-04-15T09:36:05;12.38;;;2.28;;
50781;SDS011;36749;37.428;-121.972;2023-04-15T09:38:36;10.35;;;1.88;;
50781;SDS011;36749;37.428;-121.972;2023-04-15T09:41:22;9.88;;;2.40;;
50781;SDS011;36749;37.428;-121.972;2023-04-15T09:43:49;7.80;;;2.10;;
50781;SDS011;36749;37.428;-121.972;2023-04-15T09:46:15;12.23;;;2.28;;
50781;SDS011;36749;37.428;-121.972;2023-04-15T09:48:42;11.95;;;3.40;;
50781;SDS011;36749;37.428;-121.972;2023-04-15T09:51:08;11.25;;;2.30;;
50781;SDS011;36749;37.428;-121.972;2023-04-15T09:53:34;7.53;;;2.42;;
50781;SDS011;36749;37.428;-121.972;2023-04-15T09:56:02;8.85;;;2.33;;
50781;SDS011;36749;37.428;-121.972;2023-04-15T09:58:32;9.15;;;2.05;;
50781;SDS011;36749;37.428;-121.972;2023-04-15T10:00:59;6.47;;;2.10;;
50781;SDS011;36749;37.428;-121.972;2023-04-15T10:03:29;9.80;;;2.25;;
50781;SDS011;36749;37.428;-121.972;2023-04-15T10:05:56;11.70;;;2.30;;
50781;SDS011;36749;37.428;-121.972;2023-04-15T10:08:25;9.57;;;2.28;;
50781;SDS011;36749;37.428;-121.972;2023-04-15T10:10:55;10.70;;;1.90;;
50781;SDS011;36749;37.428;-121.972;2023-04-15T10:13:23;8.38;;;2.25;;
50781;SDS011;36749;37.428;-121.972;2023-04-15T10:15:51;10.98;;;2.25;;
50781;SDS011;36749;37.428;-121.972;2023-04-15T10:18:23;10.10;;;2.13;;
50781;SDS011;36749;37.428;-121.972;2023-04-15T10:20:51;6.80;;;1.83;;
50781;SDS011;36749;37.428;-121.972;2023-04-15T10:23:18;10.50;;;2.40;;
50781;SDS011;36749;37.428;-121.972;2023-04-15T10:25:46;8.30;;;1.90;;
50781;SDS011;36749;37.428;-121.972;2023-04-15T10:28:17;7.03;;;1.70;;
50781;SDS011;36749;37.428;-121.972;2023-04-15T10:30:45;9.05;;;2.30;;
50781;SDS011;36749;37.428;-121.972;2023-04-15T10:33:12;10.48;;;2.38;;
50781;SDS011;36749;37.428;-121.972;2023-04-15T10:35:39;4.75;;;1.80;;
50781;SDS011;36749;37.428;-121.972;2023-04-15T10:41:13;6.03;;;2.47;;
50781;SDS011;36749;37.428;-121.972;2023-04-15T10:43:50;8.80;;;2.38;;
50781;SDS011;36749;37.428;-121.972;2023-04-15T10:46:18;7.85;;;2.08;;
50781;SDS011;36749;37.428;-121.972;2023-04-15T10:48:49;8.60;;;2.28;;
50781;SDS011;36749;37.428;-121.972;2023-04-15T10:51:27;15.45;;;2.40;;
50781;SDS011;36749;37.428;-121.972;2023-04-15T10:54:00;5.90;;;2.08;;
50781;SDS011;36749;37.428;-121.972;2023-04-15T10:56:29;6.45;;;2.55;;
50781;SDS011;36749;37.428;-121.972;2023-04-15T10:58:57;9.77;;;2.38;;
50781;SDS011;36749;37.428;-121.972;2023-04-15T11:01:48;13.45;;;1.95;;
50781;SDS011;36749;37.428;-121.972;2023-04-15T11:04:53;5.70;;;2.10;;
50781;SDS011;36749;37.428;-121.972;2023-04-15T11:07:36;10.43;;;2.10;;
50781;SDS011;36749;37.428;-121.972;2023-04-15T11:12:39;7.28;;;2.10;;
50781;SDS011;36749;37.428;-121.972;2023-04-15T11:17:51;6.90;;;1.77;;
50781;SDS011;36749;37.428;-121.972;2023-04-15T11:20:17;4.70;;;1.70;;
50781;SDS011;36749;37.428;-121.972;2023-04-15T11:22:50;4.38;;;1.80;;
50781;SDS011;36749;37.428;-121.972;2023-04-15T11:25:28;12.55;;;2.65;;
50781;SDS011;36749;37.428;-121.972;2023-04-15T11:27:55;8.23;;;2.83;;
50781;SDS011;36749;37.428;-121.972;2023-04-15T11:30:24;11.20;;;2.88;;
50781;SDS011;36749;37.428;-121.972;2023-04-15T11:32:52;8.43;;;2.92;;
50781;SDS011;36749;37.428;-121.972;2023-04-15T11:35:19;11.05;;;2.78;;
50781;SDS011;36749;37.428;-121.972;2023-04-15T11:37:47;8.23;;;2.30;;
50781;SDS011;36749;37.428;-121.972;2023-04-15T11:40:16;6.78;;;2.35;;
50781;SDS011;36749;37.428;-121.972;2023-04-15T11:43:07;10.00;;;3.13;;
50781;SDS011;36749;37.428;-121.972;2023-04-15T11:45:52;7.10;;;2.60;;
50781;SDS011;36749;37.428;-121.972;2023-04-15T11:48:21;7.57;;;2.15;;
50781;SDS011;36749;37.428;-121.972;2023-04-15T11:51:05;13.32;;;2.70;;
50781;SDS011;36749;37.428;-121.972;2023-04-15T11:53:40;7.93;;;2.10;;
50781;SDS011;36749;37.428;-121.972;2023-04-15T11:56:15;9.15;;;2.58;;
50781;SDS011;36749;37.428;-121.972;2023-04-15T11:58:59;8.15;;;2.40;;
50781;SDS011;36749;37.428;-121.972;2023-04-15T12:01:36;8.05;;;2.25;;
50781;SDS011;36749;37.428;-121.972;2023-04-15T12:04:11;7.22;;;2.08;;
50781;SDS011;36749;37.428;-121.972;2023-04-15T12:06:39;7.78;;;2.70;;
50781;SDS011;36749;37.428;-121.972;2023-04-15T12:11:35;6.55;;;2.08;;
50781;SDS011;36749;37.428;-121.972;2023-04-15T12:14:07;8.90;;;2.15;;
50781;SDS011;36749;37.428;-121.972;2023-04-15T12:16:36;10.07;;;2.42;;
50781;SDS011;36749;37.428;-121.972;2023-04-15T12:19:10;5.32;;;2.13;;
50781;SDS011;36749;37.428;-121.972;2023-04-15T12:21:39;6.88;;;2.25;;
50781;SDS011;36749;37.428;-121.972;2023-04-15T12:24:07;10.00;;;2.55;;
50781;SDS011;36749;37.428;-121.972;2023-04-15T12:26:36;7.38;;;1.85;;
50781;SDS011;36749;37.428;-121.972;2023-04-15T12:29:08;6.13;;;1.70;;
50781;SDS011;36749;37.428;-121.972;2023-04-15T12:31:36;5.05;;;1.77;;
50781;SDS011;36749;37.428;-121.972;2023-04-15T12:34:03;17.98;;;2.13;;
50781;SDS011;36749;37.428;-121.972;2023-04-15T12:36:33;10.43;;;1.95;;
50781;SDS011;36749;37.428;-121.972;2023-04-15T12:39:02;10.45;;;1.92;;
50781;SDS011;36749;37.428;-121.972;2023-04-15T12:41:29;5.85;;;1.77;;
50781;SDS011;36749;37.428;-121.972;2023-04-15T12:43:56;5.82;;;1.83;;
50781;SDS011;36749;37.428;-121.972;2023-04-15T12:46:23;8.98;;;2.17;;
50781;SDS011;36749;37.428;-121.972;2023-04-15T12:48:49;4.72;;;1.58;;
50781;SDS011;36749;37.428;-121.972;2023-04-15T12:51:17;5.75;;;1.67;;
50781;SDS011;36749;37.428;-121.972;2023-04-15T12:53:47;4.40;;;1.55;;
50781;SDS011;36749;37.428;-121.972;2023-04-15T12:56:14;11.38;;;1.85;;
50781;SDS011;36749;37.428;-121.972;2023-04-15T12:58:44;5.38;;;1.88;;
50781;SDS011;36749;37.428;-121.972;2023-04-15T13:01:10;4.70;;;1.55;;
50781;SDS011;36749;37.428;-121.972;2023-04-15T13:03:36;6.00;;;1.40;;
50781;SDS011;36749;37.428;-121.972;2023-04-15T13:06:02;6.15;;;2.10;;
50781;SDS011;36749;37.428;-121.972;2023-04-15T13:08:29;6.18;;;1.63;;
50781;SDS011;36749;37.428;-121.972;2023-04-15T13:10:56;9.80;;;2.20;;
50781;SDS011;36749;37.428;-121.972;2023-04-15T13:13:22;4.32;;;1.52;;
50781;SDS011;36749;37.428;-121.972;2023-04-15T13:15:48;6.13;;;1.50;;
50781;SDS011;36749;37.428;-121.972;2023-04-15T13:18:14;5.65;;;1.73;;
50781;SDS011;36749;37.428;-121.972;2023-04-15T13:20:41;7.18;;;2.13;;
50781;SDS011;36749;37.428;-121.972;2023-04-15T13:23:07;11.13;;;2.60;;
50781;SDS011;36749;37.428;-121.972;2023-04-15T13:25:34;4.22;;;1.50;;
50781;SDS011;36749;37.428;-121.972;2023-04-15T13:28:01;6.75;;;1.75;;
50781;SDS011;36749;37.428;-121.972;2023-04-15T13:30:27;8.88;;;1.90;;
50781;SDS011;36749;37.428;-121.972;2023-04-15T13:32:53;5.32;;;1.50;;
50781;SDS011;36749;37.428;-121.972;2023-04-15T13:35:20;6.68;;;1.60;;
50781;SDS011;36749;37.428;-121.972;2023-04-15T13:37:46;4.65;;;2.30;;
50781;SDS011;36749;37.428;-121.972;2023-04-15T13:40:12;5.75;;;2.20;;
50781;SDS011;36749;37.428;-121.972;2023-04-15T13:42:39;4.95;;;2.10;;
50781;SDS011;36749;37.428;-121.972;2023-04-15T13:45:06;11.40;;;2.17;;
50781;SDS011;36749;37.428;-121.972;2023-04-15T13:47:32;4.95;;;1.85;;
50781;SDS011;36749;37.428;-121.972;2023-04-15T13:49:58;7.57;;;1.70;;
50781;SDS011;36749;37.428;-121.972;2023-04-15T13:52:25;10.35;;;2.50;;
50781;SDS011;36749;37.428;-121.972;2023-04-15T13:54:51;13.30;;;2.47;;
50781;SDS011;36749;37.428;-121.972;2023-04-15T13:57:17;5.32;;;1.60;;
50781;SDS011;36749;37.428;-121.972;2023-04-15T13:59:43;9.38;;;2.10;;
50781;SDS011;36749;37.428;-121.972;2023-04-15T14:02:09;8.68;;;2.45;;
50781;SDS011;36749;37.428;-121.972;2023-04-15T14:04:36;5.85;;;1.90;;
50781;SDS011;36749;37.428;-121.972;2023-04-15T14:07:05;5.47;;;1.70;;
50781;SDS011;36749;37.428;-121.972;2023-04-15T14:09:31;6.03;;;1.65;;
50781;SDS011;36749;37.428;-121.972;2023-04-15T14:11:58;5.18;;;1.50;;
50781;SDS011;36749;37.428;-121.972;2023-04-15T14:14:24;4.38;;;1.63;;
50781;SDS011;36749;37.428;-121.972;2023-04-15T14:16:51;8.13;;;1.83;;
50781;SDS011;36749;37.428;-121.972;2023-04-15T14:19:17;5.68;;;1.92;;
50781;SDS011;36749;37.428;-121.972;2023-04-15T14:21:43;9.65;;;2.50;;